sensor_id;sensor_type;location;lat;lon;timestamp;P1;durP1;ratioP1;P2;durP2;ratioP2
13090;SDS011;6611;52.604;13.438;2022-07-12T00:01:46;5.20;;;3.57;;
13090;SDS011;6611;52.604;13.438;2022-07-12T00:04:18;3.63;;;2.87;;
13090;SDS011;6611;52.604;13.438;2022-07-12T00:06:50;3.77;;;2.80;;
13090;SDS011;6611;52.604;13.438;2022-07-12T00:09:24;3.50;;;2.80;;
13090;SDS011;6611;52.604;13.438;2022-07-12T00:11:56;4.90;;;3.10;;
13090;SDS011;6611;52.604;13.438;2022-07-12T00:14:28;4.10;;;3.40;;
13090;SDS011;6611;52.604;13.438;2022-07-12T00:17:01;4.57;;;3.87;;
13090;SDS011;6611;52.604;13.438;2022-07-12T00:19:34;6.53;;;3.33;;
13090;SDS011;6611;52.604;13.438;2022-07-12T00:22:06;4.53;;;3.20;;
13090;SDS011;6611;52.604;13.438;2022-07-12T00:24:39;4.37;;;3.40;;
13090;SDS011;6611;52.604;13.438;2022-07-12T00:27:11;4.03;;;3.03;;
13090;SDS011;6611;52.604;13.438;2022-07-12T00:29:44;3.80;;;3.17;;
13090;SDS011;6611;52.604;13.438;2022-07-12T00:32:16;4.27;;;3.27;;
13090;SDS011;6611;52.604;13.438;2022-07-12T00:34:48;5.63;;;4.07;;
13090;SDS011;6611;52.604;13.438;2022-07-12T00:37:20;5.33;;;3.57;;
13090;SDS011;6611;52.604;13.438;2022-07-12T00:39:54;5.60;;;3.87;;
13090;SDS011;6611;52.604;13.438;2022-07-12T00:42:27;6.17;;;3.70;;
13090;SDS011;6611;52.604;13.438;2022-07-12T00:44:59;4.20;;;3.60;;
13090;SDS011;6611;52.604;13.438;2022-07-12T00:47:33;5.70;;;3.70;;
13090;SDS011;6611;52.604;13.438;2022-07-12T00:50:07;5.23;;;3.43;;
13090;SDS011;6611;52.604;13.438;2022-07-12T00:52:40;4.27;;;3.30;;
13090;SDS011;6611;52.604;13.438;2022-07-12T00:55:14;3.83;;;3.17;;
13090;SDS011;6611;52.604;13.438;2022-07-12T00:57:47;3.50;;;3.00;;
13090;SDS011;6611;52.604;13.438;2022-07-12T01:00:21;4.17;;;3.10;;
13090;SDS011;6611;52.604;13.438;2022-07-12T01:02:54;5.00;;;3.37;;
13090;SDS011;6611;52.604;13.438;2022-07-12T01:05:26;5.13;;;3.63;;
13090;SDS011;6611;52.604;13.438;2022-07-12T01:08:00;4.10;;;3.17;;
13090;SDS011;6611;52.604;13.438;2022-07-12T01:10:33;5.90;;;3.20;;
13090;SDS011;6611;52.604;13.438;2022-07-12T01:13:07;7.80;;;3.83;;
13090;SDS011;6611;52.604;13.438;2022-07-12T01:15:40;5.30;;;3.40;;
13090;SDS011;6611;52.604;13.438;2022-07-12T01:18:12;3.33;;;2.60;;
13090;SDS011;6611;52.604;13.438;2022-07-12T01:20:45;4.07;;;2.87;;
13090;SDS011;6611;52.604;13.438;2022-07-12T01:23:18;6.50;;;3.30;;
13090;SDS011;6611;52.604;13.438;2022-07-12T01:25:51;3.43;;;2.87;;
13090;SDS011;6611;52.604;13.438;2022-07-12T01:28:23;3.83;;;3.23;;
13090;SDS011;6611;52.604;13.438;2022-07-12T01:30:55;4.57;;;3.00;;
13090;SDS011;6611;52.604;13.438;2022-07-12T01:33:27;5.13;;;3.20;;
13090;SDS011;6611;52.604;13.438;2022-07-12T01:35:59;5.40;;;3.50;;
13090;SDS011;6611;52.604;13.438;2022-07-12T01:38:33;3.10;;;2.50;;
13090;SDS011;6611;52.604;13.438;2022-07-12T01:41:05;4.03;;;2.70;;
13090;SDS011;6611;52.604;13.438;2022-07-12T01:43:38;2.97;;;2.50;;
13090;SDS011;6611;52.604;13.438;2022-07-12T01:46:10;3.10;;;2.43;;
13090;SDS011;6611;52.604;13.438;2022-07-12T01:48:42;3.30;;;2.33;;
13090;SDS011;6611;52.604;13.438;2022-07-12T01:51:14;2.37;;;2.10;;
13090;SDS011;6611;52.604;13.438;2022-07-12T01:53:47;2.77;;;2.00;;
13090;SDS011;6611;52.604;13.438;2022-07-12T01:56:20;3.60;;;2.47;;
13090;SDS011;6611;52.604;13.438;2022-07-12T01:58:52;3.83;;;2.70;;
13090;SDS011;6611;52.604;13.438;2022-07-12T02:01:24;4.17;;;2.50;;
13090;SDS011;6611;52.604;13.438;2022-07-12T02:03:56;3.93;;;2.30;;
13090;SDS011;6611;52.604;13.438;2022-07-12T02:06:28;3.23;;;2.23;;
13090;SDS011;6611;52.604;13.438;2022-07-12T02:09:02;3.10;;;2.50;;
13090;SDS011;6611;52.604;13.438;2022-07-12T02:11:34;3.07;;;2.23;;
13090;SDS011;6611;52.604;13.438;2022-07-12T02:14:06;3.03;;;2.00;;
13090;SDS011;6611;52.604;13.438;2022-07-12T02:16:39;4.30;;;2.57;;
13090;SDS011;6611;52.604;13.438;2022-07-12T02:19:11;3.97;;;2.77;;
13090;SDS011;6611;52.604;13.438;2022-07-12T02:21:43;4.17;;;2.30;;
13090;SDS011;6611;52.604;13.438;2022-07-12T02:24:16;3.30;;;2.17;;
13090;SDS011;6611;52.604;13.438;2022-07-12T02:26:49;4.93;;;2.40;;
13090;SDS011;6611;52.604;13.438;2022-07-12T02:29:21;3.53;;;2.13;;
13090;SDS011;6611;52.604;13.438;2022-07-12T02:31:53;3.47;;;2.30;;
13090;SDS011;6611;52.604;13.438;2022-07-12T02:34:25;3.30;;;2.23;;
13090;SDS011;6611;52.604;13.438;2022-07-12T02:36:57;3.27;;;2.20;;
13090;SDS011;6611;52.604;13.438;2022-07-12T02:39:30;3.60;;;2.20;;
13090;SDS011;6611;52.604;13.438;2022-07-12T02:42:03;2.80;;;2.17;;
13090;SDS011;6611;52.604;13.438;2022-07-12T02:44:35;3.30;;;2.33;;
13090;SDS011;6611;52.604;13.438;2022-07-12T02:47:07;3.30;;;2.20;;
13090;SDS011;6611;52.604;13.438;2022-07-12T02:49:39;3.50;;;2.43;;
13090;SDS011;6611;52.604;13.438;2022-07-12T02:52:11;3.80;;;2.27;;
13090;SDS011;6611;52.604;13.438;2022-07-12T02:54:45;3.63;;;2.13;;
13090;SDS011;6611;52.604;13.438;2022-07-12T02:57:17;5.33;;;2.70;;
13090;SDS011;6611;52.604;13.438;2022-07-12T02:59:49;3.87;;;2.30;;
13090;SDS011;6611;52.604;13.438;2022-07-12T03:02:21;3.80;;;2.57;;
13090;SDS011;6611;52.604;13.438;2022-07-12T03:04:53;3.53;;;2.37;;
13090;SDS011;6611;52.604;13.438;2022-07-12T03:07:25;2.90;;;2.30;;
13090;SDS011;6611;52.604;13.438;2022-07-12T03:09:59;3.10;;;2.27;;
13090;SDS011;6611;52.604;13.438;2022-07-12T03:12:31;5.83;;;2.50;;
13090;SDS011;6611;52.604;13.438;2022-07-12T03:15:03;3.73;;;2.60;;
13090;SDS011;6611;52.604;13.438;2022-07-12T03:17:36;5.13;;;2.70;;
13090;SDS011;6611;52.604;13.438;2022-07-12T03:20:08;4.03;;;2.70;;
13090;SDS011;6611;52.604;13.438;2022-07-12T03:22:41;3.93;;;2.57;;
13090;SDS011;6611;52.604;13.438;2022-07-12T03:25:17;3.70;;;2.80;;
13090;SDS011;6611;52.604;13.438;2022-07-12T03:27:50;3.30;;;2.80;;
13090;SDS011;6611;52.604;13.438;2022-07-12T03:30:22;4.57;;;2.27;;
13090;SDS011;6611;52.604;13.438;2022-07-12T03:32:54;3.27;;;2.20;;
13090;SDS011;6611;52.604;13.438;2022-07-12T03:35:26;2.17;;;1.97;;
13090;SDS011;6611;52.604;13.438;2022-07-12T03:37:58;2.70;;;1.83;;
13090;SDS011;6611;52.604;13.438;2022-07-12T03:40:32;4.37;;;2.30;;
13090;SDS011;6611;52.604;13.438;2022-07-12T03:43:04;2.40;;;1.90;;
13090;SDS011;6611;52.604;13.438;2022-07-12T03:45:36;3.33;;;1.70;;
13090;SDS011;6611;52.604;13.438;2022-07-12T03:48:10;1.90;;;1.60;;
13090;SDS011;6611;52.604;13.438;2022-07-12T03:50:42;2.87;;;1.87;;
13090;SDS011;6611;52.604;13.438;2022-07-12T03:53:15;2.40;;;1.40;;
13090;SDS011;6611;52.604;13.438;2022-07-12T03:55:49;2.93;;;1.80;;
13090;SDS011;6611;52.604;13.438;2022-07-12T03:58:22;1.53;;;1.30;;
13090;SDS011;6611;52.604;13.438;2022-07-12T04:00:54;1.63;;;1.33;;
13090;SDS011;6611;52.604;13.438;2022-07-12T04:03:26;3.13;;;1.50;;
13090;SDS011;6611;52.604;13.438;2022-07-12T04:05:59;1.73;;;1.37;;
13090;SDS011;6611;52.604;13.438;2022-07-12T04:08:31;2.60;;;1.53;;
13090;SDS011;6611;52.604;13.438;2022-07-12T04:11:06;3.53;;;1.70;;
13090;SDS011;6611;52.604;13.438;2022-07-12T04:13:38;2.33;;;1.63;;
13090;SDS011;6611;52.604;13.438;2022-07-12T04:16:10;1.23;;;1.10;;
13090;SDS011;6611;52.604;13.438;2022-07-12T04:18:42;1.67;;;1.47;;
13090;SDS011;6611;52.604;13.438;2022-07-12T04:21:15;1.30;;;1.20;;
13090;SDS011;6611;52.604;13.438;2022-07-12T04:23:47;1.73;;;1.43;;
13090;SDS011;6611;52.604;13.438;2022-07-12T04:26:20;2.97;;;1.30;;
13090;SDS011;6611;52.604;13.438;2022-07-12T04:28:52;4.60;;;1.40;;
13090;SDS011;6611;52.604;13.438;2022-07-12T04:31:24;1.93;;;1.40;;
13090;SDS011;6611;52.604;13.438;2022-07-12T04:33:56;3.93;;;1.40;;
13090;SDS011;6611;52.604;13.438;2022-07-12T04:36:28;2.60;;;1.53;;
13090;SDS011;6611;52.604;13.438;2022-07-12T04:39:01;3.10;;;1.50;;
13090;SDS011;6611;52.604;13.438;2022-07-12T04:41:34;1.60;;;1.10;;
13090;SDS011;6611;52.604;13.438;2022-07-12T04:44:07;2.77;;;1.30;;
13090;SDS011;6611;52.604;13.438;2022-07-12T04:46:39;2.07;;;1.13;;
13090;SDS011;6611;52.604;13.438;2022-07-12T04:49:11;1.13;;;1.03;;
13090;SDS011;6611;52.604;13.438;2022-07-12T04:51:43;2.80;;;1.50;;
13090;SDS011;6611;52.604;13.438;2022-07-12T04:54:16;3.30;;;1.50;;
13090;SDS011;6611;52.604;13.438;2022-07-12T04:56:49;1.60;;;1.20;;
13090;SDS011;6611;52.604;13.438;2022-07-12T04:59:21;1.90;;;1.20;;
13090;SDS011;6611;52.604;13.438;2022-07-12T05:01:53;1.37;;;1.13;;
13090;SDS011;6611;52.604;13.438;2022-07-12T05:04:26;2.83;;;1.40;;
13090;SDS011;6611;52.604;13.438;2022-07-12T05:06:58;1.50;;;1.13;;
13090;SDS011;6611;52.604;13.438;2022-07-12T05:09:30;1.90;;;1.10;;
13090;SDS011;6611;52.604;13.438;2022-07-12T05:12:04;2.90;;;1.20;;
13090;SDS011;6611;52.604;13.438;2022-07-12T05:14:36;3.10;;;1.27;;
13090;SDS011;6611;52.604;13.438;2022-07-12T05:17:08;2.40;;;1.07;;
13090;SDS011;6611;52.604;13.438;2022-07-12T05:19:40;1.90;;;1.30;;
13090;SDS011;6611;52.604;13.438;2022-07-12T05:22:13;2.13;;;1.33;;
13090;SDS011;6611;52.604;13.438;2022-07-12T05:24:45;2.47;;;1.20;;
13090;SDS011;6611;52.604;13.438;2022-07-12T05:27:18;2.23;;;1.00;;
13090;SDS011;6611;52.604;13.438;2022-07-12T05:29:50;1.47;;;0.90;;
13090;SDS011;6611;52.604;13.438;2022-07-12T05:32:22;3.80;;;1.63;;
13090;SDS011;6611;52.604;13.438;2022-07-12T05:34:55;1.93;;;1.20;;
13090;SDS011;6611;52.604;13.438;2022-07-12T05:37:27;2.53;;;1.20;;
13090;SDS011;6611;52.604;13.438;2022-07-12T05:39:59;2.83;;;1.00;;
13090;SDS011;6611;52.604;13.438;2022-07-12T05:42:33;3.07;;;0.93;;
13090;SDS011;6611;52.604;13.438;2022-07-12T05:45:05;1.47;;;0.90;;
13090;SDS011;6611;52.604;13.438;2022-07-12T05:47:38;1.77;;;0.97;;
13090;SDS011;6611;52.604;13.438;2022-07-12T05:50:10;1.50;;;0.97;;
13090;SDS011;6611;52.604;13.438;2022-07-12T05:52:42;1.60;;;0.83;;
13090;SDS011;6611;52.604;13.438;2022-07-12T05:55:32;1.27;;;0.73;;
13090;SDS011;6611;52.604;13.438;2022-07-12T05:58:06;2.30;;;1.00;;
13090;SDS011;6611;52.604;13.438;2022-07-12T06:00:38;1.37;;;1.10;;
13090;SDS011;6611;52.604;13.438;2022-07-12T06:03:10;3.07;;;1.07;;
13090;SDS011;6611;52.604;13.438;2022-07-12T06:05:43;2.17;;;1.00;;
13090;SDS011;6611;52.604;13.438;2022-07-12T06:08:15;1.77;;;0.90;;
13090;SDS011;6611;52.604;13.438;2022-07-12T06:10:48;1.63;;;0.80;;
13090;SDS011;6611;52.604;13.438;2022-07-12T06:13:21;2.20;;;0.73;;
13090;SDS011;6611;52.604;13.438;2022-07-12T06:15:54;1.20;;;0.60;;
13090;SDS011;6611;52.604;13.438;2022-07-12T06:18:26;2.10;;;0.97;;
13090;SDS011;6611;52.604;13.438;2022-07-12T06:20:59;1.90;;;1.07;;
13090;SDS011;6611;52.604;13.438;2022-07-12T06:23:31;2.03;;;0.97;;
13090;SDS011;6611;52.604;13.438;2022-07-12T06:26:03;2.17;;;1.03;;
13090;SDS011;6611;52.604;13.438;2022-07-12T06:28:37;2.40;;;1.07;;
13090;SDS011;6611;52.604;13.438;2022-07-12T06:31:09;2.93;;;1.00;;
13090;SDS011;6611;52.604;13.438;2022-07-12T06:33:41;1.93;;;0.90;;
13090;SDS011;6611;52.604;13.438;2022-07-12T06:36:13;2.40;;;0.80;;
13090;SDS011;6611;52.604;13.438;2022-07-12T06:38:45;2.60;;;0.80;;
13090;SDS011;6611;52.604;13.438;2022-07-12T06:41:17;2.20;;;0.87;;
13090;SDS011;6611;52.604;13.438;2022-07-12T06:43:51;1.83;;;1.07;;
13090;SDS011;6611;52.604;13.438;2022-07-12T06:46:23;2.23;;;0.80;;
13090;SDS011;6611;52.604;13.438;2022-07-12T06:48:55;4.13;;;1.13;;
13090;SDS011;6611;52.604;13.438;2022-07-12T06:51:27;3.00;;;1.00;;
13090;SDS011;6611;52.604;13.438;2022-07-12T06:53:59;2.27;;;1.00;;
13090;SDS011;6611;52.604;13.438;2022-07-12T06:56:31;2.30;;;0.83;;
13090;SDS011;6611;52.604;13.438;2022-07-12T06:59:04;0.70;;;0.70;;
13090;SDS011;6611;52.604;13.438;2022-07-12T07:01:36;1.43;;;1.00;;
13090;SDS011;6611;52.604;13.438;2022-07-12T07:04:08;1.63;;;0.93;;
13090;SDS011;6611;52.604;13.438;2022-07-12T07:06:40;1.73;;;1.10;;
13090;SDS011;6611;52.604;13.438;2022-07-12T07:09:13;1.80;;;0.83;;
13090;SDS011;6611;52.604;13.438;2022-07-12T07:11:45;1.60;;;0.93;;
13090;SDS011;6611;52.604;13.438;2022-07-12T07:14:18;2.47;;;1.17;;
13090;SDS011;6611;52.604;13.438;2022-07-12T07:16:52;1.60;;;1.07;;
13090;SDS011;6611;52.604;13.438;2022-07-12T07:19:24;3.00;;;1.00;;
13090;SDS011;6611;52.604;13.438;2022-07-12T07:21:56;1.67;;;0.73;;
13090;SDS011;6611;52.604;13.438;2022-07-12T07:24:29;2.07;;;0.83;;
13090;SDS011;6611;52.604;13.438;2022-07-12T07:27:01;1.47;;;0.93;;
13090;SDS011;6611;52.604;13.438;2022-07-12T07:29:35;1.97;;;0.90;;
13090;SDS011;6611;52.604;13.438;2022-07-12T07:32:24;2.30;;;1.00;;
13090;SDS011;6611;52.604;13.438;2022-07-12T07:34:56;1.60;;;0.97;;
13090;SDS011;6611;52.604;13.438;2022-07-12T07:37:28;2.27;;;0.80;;
13090;SDS011;6611;52.604;13.438;2022-07-12T07:40:00;1.70;;;0.93;;
13090;SDS011;6611;52.604;13.438;2022-07-12T07:42:32;2.00;;;0.70;;
13090;SDS011;6611;52.604;13.438;2022-07-12T07:45:06;2.83;;;0.87;;
13090;SDS011;6611;52.604;13.438;2022-07-12T07:47:44;3.80;;;1.00;;
13090;SDS011;6611;52.604;13.438;2022-07-12T07:50:17;1.50;;;0.90;;
13090;SDS011;6611;52.604;13.438;2022-07-12T07:52:49;2.40;;;0.90;;
13090;SDS011;6611;52.604;13.438;2022-07-12T07:55:21;2.47;;;1.07;;
13090;SDS011;6611;52.604;13.438;2022-07-12T07:57:53;1.73;;;0.80;;
13090;SDS011;6611;52.604;13.438;2022-07-12T08:00:27;2.07;;;0.97;;
13090;SDS011;6611;52.604;13.438;2022-07-12T08:02:59;1.70;;;1.10;;
13090;SDS011;6611;52.604;13.438;2022-07-12T08:05:31;2.73;;;1.10;;
13090;SDS011;6611;52.604;13.438;2022-07-12T08:08:03;1.23;;;0.67;;
13090;SDS011;6611;52.604;13.438;2022-07-12T08:10:36;3.17;;;0.90;;
13090;SDS011;6611;52.604;13.438;2022-07-12T08:13:08;1.27;;;0.90;;
13090;SDS011;6611;52.604;13.438;2022-07-12T08:15:42;1.90;;;0.70;;
13090;SDS011;6611;52.604;13.438;2022-07-12T08:18:13;2.23;;;0.80;;
13090;SDS011;6611;52.604;13.438;2022-07-12T08:20:46;3.80;;;1.10;;
13090;SDS011;6611;52.604;13.438;2022-07-12T08:23:18;1.77;;;0.90;;
13090;SDS011;6611;52.604;13.438;2022-07-12T08:25:50;0.97;;;0.83;;
13090;SDS011;6611;52.604;13.438;2022-07-12T08:28:22;2.27;;;0.90;;
13090;SDS011;6611;52.604;13.438;2022-07-12T08:30:55;2.50;;;0.80;;
13090;SDS011;6611;52.604;13.438;2022-07-12T08:33:27;2.00;;;0.90;;
13090;SDS011;6611;52.604;13.438;2022-07-12T08:36:00;1.23;;;0.67;;
13090;SDS011;6611;52.604;13.438;2022-07-12T08:38:32;2.43;;;0.90;;
13090;SDS011;6611;52.604;13.438;2022-07-12T08:41:06;2.10;;;0.80;;
13090;SDS011;6611;52.604;13.438;2022-07-12T08:43:39;3.07;;;0.90;;
13090;SDS011;6611;52.604;13.438;2022-07-12T08:46:14;1.13;;;0.60;;
13090;SDS011;6611;52.604;13.438;2022-07-12T08:48:46;1.87;;;1.00;;
13090;SDS011;6611;52.604;13.438;2022-07-12T08:51:19;1.67;;;0.70;;
13090;SDS011;6611;52.604;13.438;2022-07-12T08:54:04;2.13;;;0.90;;
13090;SDS011;6611;52.604;13.438;2022-07-12T08:56:37;2.07;;;0.80;;
13090;SDS011;6611;52.604;13.438;2022-07-12T08:59:10;1.93;;;0.70;;
13090;SDS011;6611;52.604;13.438;2022-07-12T09:01:45;2.20;;;0.87;;
13090;SDS011;6611;52.604;13.438;2022-07-12T09:04:20;1.17;;;0.90;;
13090;SDS011;6611;52.604;13.438;2022-07-12T09:06:52;1.23;;;0.90;;
13090;SDS011;6611;52.604;13.438;2022-07-12T09:09:25;1.07;;;0.70;;
13090;SDS011;6611;52.604;13.438;2022-07-12T09:11:58;1.57;;;0.90;;
13090;SDS011;6611;52.604;13.438;2022-07-12T09:14:30;1.77;;;0.90;;
13090;SDS011;6611;52.604;13.438;2022-07-12T09:17:05;1.40;;;0.80;;
13090;SDS011;6611;52.604;13.438;2022-07-12T09:19:43;1.37;;;0.70;;
13090;SDS011;6611;52.604;13.438;2022-07-12T09:22:25;1.70;;;0.83;;
13090;SDS011;6611;52.604;13.438;2022-07-12T09:24:59;4.17;;;1.40;;
13090;SDS011;6611;52.604;13.438;2022-07-12T09:27:33;2.23;;;1.10;;
13090;SDS011;6611;52.604;13.438;2022-07-12T09:30:06;1.10;;;0.60;;
13090;SDS011;6611;52.604;13.438;2022-07-12T09:32:52;3.00;;;1.07;;
13090;SDS011;6611;52.604;13.438;2022-07-12T09:35:43;1.50;;;0.77;;
13090;SDS011;6611;52.604;13.438;2022-07-12T09:38:38;3.03;;;0.80;;
13090;SDS011;6611;52.604;13.438;2022-07-12T09:41:11;1.27;;;0.90;;
13090;SDS011;6611;52.604;13.438;2022-07-12T09:43:48;1.10;;;0.73;;
13090;SDS011;6611;52.604;13.438;2022-07-12T09:46:20;1.90;;;0.70;;
13090;SDS011;6611;52.604;13.438;2022-07-12T09:48:55;1.90;;;0.60;;
13090;SDS011;6611;52.604;13.438;2022-07-12T09:51:28;1.43;;;0.80;;
13090;SDS011;6611;52.604;13.438;2022-07-12T09:54:01;1.83;;;0.90;;
13090;SDS011;6611;52.604;13.438;2022-07-12T09:56:35;1.87;;;0.80;;
13090;SDS011;6611;52.604;13.438;2022-07-12T09:59:07;1.30;;;0.80;;
13090;SDS011;6611;52.604;13.438;2022-07-12T10:01:40;1.10;;;0.70;;
13090;SDS011;6611;52.604;13.438;2022-07-12T10:04:14;2.77;;;0.90;;
13090;SDS011;6611;52.604;13.438;2022-07-12T10:06:47;2.60;;;0.87;;
13090;SDS011;6611;52.604;13.438;2022-07-12T10:09:19;1.70;;;0.70;;
13090;SDS011;6611;52.604;13.438;2022-07-12T10:11:51;1.73;;;0.80;;
13090;SDS011;6611;52.604;13.438;2022-07-12T10:14:24;2.97;;;0.88;;
13090;SDS011;6611;52.604;13.438;2022-07-12T10:16:56;3.13;;;0.70;;
13090;SDS011;6611;52.604;13.438;2022-07-12T10:19:30;2.90;;;0.77;;
13090;SDS011;6611;52.604;13.438;2022-07-12T10:22:05;1.40;;;0.67;;
13090;SDS011;6611;52.604;13.438;2022-07-12T10:24:47;2.80;;;1.00;;
13090;SDS011;6611;52.604;13.438;2022-07-12T10:27:29;0.93;;;0.80;;
13090;SDS011;6611;52.604;13.438;2022-07-12T10:30:17;2.75;;;0.82;;
13090;SDS011;6611;52.604;13.438;2022-07-12T10:32:50;1.83;;;1.10;;
13090;SDS011;6611;52.604;13.438;2022-07-12T10:35:28;0.73;;;0.50;;
13090;SDS011;6611;52.604;13.438;2022-07-12T10:38:18;2.80;;;0.90;;
13090;SDS011;6611;52.604;13.438;2022-07-12T10:40:51;2.28;;;0.80;;
13090;SDS011;6611;52.604;13.438;2022-07-12T10:43:24;7.05;;;0.90;;
13090;SDS011;6611;52.604;13.438;2022-07-12T10:46:16;1.70;;;0.90;;
13090;SDS011;6611;52.604;13.438;2022-07-12T10:48:49;1.83;;;0.70;;
13090;SDS011;6611;52.604;13.438;2022-07-12T10:51:23;2.42;;;0.70;;
13090;SDS011;6611;52.604;13.438;2022-07-12T10:53:55;3.97;;;1.20;;
13090;SDS011;6611;52.604;13.438;2022-07-12T10:56:56;1.10;;;0.70;;
13090;SDS011;6611;52.604;13.438;2022-07-12T10:59:28;1.75;;;0.90;;
13090;SDS011;6611;52.604;13.438;2022-07-12T11:02:01;1.92;;;0.93;;
13090;SDS011;6611;52.604;13.438;2022-07-12T11:04:34;3.83;;;0.90;;
13090;SDS011;6611;52.604;13.438;2022-07-12T11:07:06;1.33;;;0.80;;
13090;SDS011;6611;52.604;13.438;2022-07-12T11:09:38;1.33;;;0.80;;
13090;SDS011;6611;52.604;13.438;2022-07-12T11:12:13;1.52;;;0.95;;
13090;SDS011;6611;52.604;13.438;2022-07-12T11:14:46;1.58;;;0.73;;
13090;SDS011;6611;52.604;13.438;2022-07-12T11:17:19;1.50;;;0.80;;
13090;SDS011;6611;52.604;13.438;2022-07-12T11:20:02;3.03;;;1.00;;
13090;SDS011;6611;52.604;13.438;2022-07-12T11:22:35;1.95;;;0.85;;
13090;SDS011;6611;52.604;13.438;2022-07-12T11:25:08;1.45;;;0.80;;
13090;SDS011;6611;52.604;13.438;2022-07-12T11:27:42;1.10;;;0.80;;
13090;SDS011;6611;52.604;13.438;2022-07-12T11:30:16;2.53;;;0.93;;
13090;SDS011;6611;52.604;13.438;2022-07-12T11:32:48;2.75;;;1.23;;
13090;SDS011;6611;52.604;13.438;2022-07-12T11:35:21;1.70;;;0.70;;
13090;SDS011;6611;52.604;13.438;2022-07-12T11:37:53;1.60;;;0.85;;
13090;SDS011;6611;52.604;13.438;2022-07-12T11:40:26;1.08;;;0.90;;
13090;SDS011;6611;52.604;13.438;2022-07-12T11:43:00;2.80;;;1.00;;
13090;SDS011;6611;52.604;13.438;2022-07-12T11:45:34;1.02;;;0.90;;
13090;SDS011;6611;52.604;13.438;2022-07-12T11:48:07;1.95;;;0.85;;
13090;SDS011;6611;52.604;13.438;2022-07-12T11:50:41;1.08;;;0.80;;
13090;SDS011;6611;52.604;13.438;2022-07-12T11:53:15;3.17;;;0.90;;
13090;SDS011;6611;52.604;13.438;2022-07-12T11:55:48;2.17;;;0.85;;
13090;SDS011;6611;52.604;13.438;2022-07-12T11:58:23;1.55;;;0.80;;
13090;SDS011;6611;52.604;13.438;2022-07-12T12:00:55;1.23;;;0.70;;
13090;SDS011;6611;52.604;13.438;2022-07-12T12:03:27;1.30;;;0.75;;
13090;SDS011;6611;52.604;13.438;2022-07-12T12:06:00;1.10;;;0.80;;
13090;SDS011;6611;52.604;13.438;2022-07-12T12:08:33;0.95;;;0.70;;
13090;SDS011;6611;52.604;13.438;2022-07-12T12:11:05;0.95;;;0.60;;
13090;SDS011;6611;52.604;13.438;2022-07-12T12:13:39;1.98;;;0.75;;
13090;SDS011;6611;52.604;13.438;2022-07-12T12:16:11;1.42;;;0.70;;
13090;SDS011;6611;52.604;13.438;2022-07-12T12:18:43;0.85;;;0.70;;
13090;SDS011;6611;52.604;13.438;2022-07-12T12:21:15;1.15;;;0.82;;
13090;SDS011;6611;52.604;13.438;2022-07-12T12:23:47;2.67;;;0.70;;
13090;SDS011;6611;52.604;13.438;2022-07-12T12:26:20;2.03;;;0.80;;
13090;SDS011;6611;52.604;13.438;2022-07-12T12:28:54;4.32;;;0.77;;
13090;SDS011;6611;52.604;13.438;2022-07-12T12:31:26;0.95;;;0.80;;
13090;SDS011;6611;52.604;13.438;2022-07-12T12:33:58;1.73;;;0.80;;
13090;SDS011;6611;52.604;13.438;2022-07-12T12:36:35;1.35;;;0.90;;
13090;SDS011;6611;52.604;13.438;2022-07-12T12:39:07;1.17;;;0.70;;
13090;SDS011;6611;52.604;13.438;2022-07-12T12:41:41;1.90;;;0.90;;
13090;SDS011;6611;52.604;13.438;2022-07-12T12:44:14;1.63;;;0.90;;
13090;SDS011;6611;52.604;13.438;2022-07-12T12:46:50;0.90;;;0.60;;
13090;SDS011;6611;52.604;13.438;2022-07-12T12:52:14;3.42;;;0.90;;
13090;SDS011;6611;52.604;13.438;2022-07-12T12:54:46;2.67;;;0.70;;
13090;SDS011;6611;52.604;13.438;2022-07-12T12:57:18;1.65;;;1.00;;
13090;SDS011;6611;52.604;13.438;2022-07-12T12:59:53;1.65;;;0.80;;
13090;SDS011;6611;52.604;13.438;2022-07-12T13:02:25;1.75;;;0.75;;
13090;SDS011;6611;52.604;13.438;2022-07-12T13:04:58;1.30;;;0.85;;
13090;SDS011;6611;52.604;13.438;2022-07-12T13:07:30;1.02;;;0.60;;
13090;SDS011;6611;52.604;13.438;2022-07-12T13:10:02;1.13;;;0.70;;
13090;SDS011;6611;52.604;13.438;2022-07-12T13:12:34;0.85;;;0.75;;
13090;SDS011;6611;52.604;13.438;2022-07-12T13:15:08;1.20;;;0.80;;
13090;SDS011;6611;52.604;13.438;2022-07-12T13:17:40;1.17;;;0.80;;
13090;SDS011;6611;52.604;13.438;2022-07-12T13:20:12;1.10;;;0.80;;
13090;SDS011;6611;52.604;13.438;2022-07-12T13:22:45;2.78;;;0.80;;
13090;SDS011;6611;52.604;13.438;2022-07-12T13:25:17;1.60;;;0.80;;
13090;SDS011;6611;52.604;13.438;2022-07-12T13:27:49;0.90;;;0.60;;
13090;SDS011;6611;52.604;13.438;2022-07-12T13:30:24;1.00;;;0.70;;
13090;SDS011;6611;52.604;13.438;2022-07-12T13:32:56;0.68;;;0.60;;
13090;SDS011;6611;52.604;13.438;2022-07-12T13:35:28;1.50;;;0.70;;
13090;SDS011;6611;52.604;13.438;2022-07-12T13:37:59;1.58;;;0.70;;
13090;SDS011;6611;52.604;13.438;2022-07-12T13:40:32;2.83;;;0.90;;
13090;SDS011;6611;52.604;13.438;2022-07-12T13:43:04;1.08;;;0.60;;
13090;SDS011;6611;52.604;13.438;2022-07-12T13:45:37;2.65;;;0.80;;
13090;SDS011;6611;52.604;13.438;2022-07-12T13:48:09;1.05;;;0.65;;
13090;SDS011;6611;52.604;13.438;2022-07-12T13:50:42;1.65;;;0.80;;
13090;SDS011;6611;52.604;13.438;2022-07-12T13:53:14;1.80;;;0.70;;
13090;SDS011;6611;52.604;13.438;2022-07-12T13:55:46;2.03;;;0.70;;
13090;SDS011;6611;52.604;13.438;2022-07-12T13:58:18;1.83;;;0.80;;
13090;SDS011;6611;52.604;13.438;2022-07-12T14:00:52;1.35;;;0.77;;
13090;SDS011;6611;52.604;13.438;2022-07-12T14:03:24;1.83;;;0.73;;
13090;SDS011;6611;52.604;13.438;2022-07-12T14:05:57;1.30;;;0.68;;
13090;SDS011;6611;52.604;13.438;2022-07-12T14:08:29;2.97;;;0.80;;
13090;SDS011;6611;52.604;13.438;2022-07-12T14:11:01;0.82;;;0.75;;
13090;SDS011;6611;52.604;13.438;2022-07-12T14:13:33;3.45;;;0.70;;
13090;SDS011;6611;52.604;13.438;2022-07-12T14:16:07;1.77;;;0.70;;
13090;SDS011;6611;52.604;13.438;2022-07-12T14:18:39;1.45;;;0.80;;
13090;SDS011;6611;52.604;13.438;2022-07-12T14:21:11;1.27;;;0.90;;
13090;SDS011;6611;52.604;13.438;2022-07-12T14:23:43;2.47;;;0.80;;
13090;SDS011;6611;52.604;13.438;2022-07-12T14:26:15;0.93;;;0.77;;
13090;SDS011;6611;52.604;13.438;2022-07-12T14:28:47;0.90;;;0.65;;
13090;SDS011;6611;52.604;13.438;2022-07-12T14:31:21;1.58;;;0.60;;
13090;SDS011;6611;52.604;13.438;2022-07-12T14:33:53;1.38;;;0.82;;
13090;SDS011;6611;52.604;13.438;2022-07-12T14:36:24;1.60;;;0.80;;
13090;SDS011;6611;52.604;13.438;2022-07-12T14:38:56;2.28;;;0.88;;
13090;SDS011;6611;52.604;13.438;2022-07-12T14:41:28;0.77;;;0.70;;
13090;SDS011;6611;52.604;13.438;2022-07-12T14:44:01;0.90;;;0.60;;
13090;SDS011;6611;52.604;13.438;2022-07-12T14:46:34;0.85;;;0.70;;
13090;SDS011;6611;52.604;13.438;2022-07-12T14:49:07;1.85;;;0.70;;
13090;SDS011;6611;52.604;13.438;2022-07-12T14:51:39;0.60;;;0.60;;
13090;SDS011;6611;52.604;13.438;2022-07-12T14:54:11;1.38;;;0.63;;
13090;SDS011;6611;52.604;13.438;2022-07-12T14:56:43;1.95;;;0.80;;
13090;SDS011;6611;52.604;13.438;2022-07-12T14:59:15;1.23;;;0.77;;
13090;SDS011;6611;52.604;13.438;2022-07-12T15:01:49;0.73;;;0.60;;
13090;SDS011;6611;52.604;13.438;2022-07-12T15:04:21;0.93;;;0.70;;
13090;SDS011;6611;52.604;13.438;2022-07-12T15:06:53;1.17;;;0.50;;
13090;SDS011;6611;52.604;13.438;2022-07-12T15:09:25;1.67;;;0.82;;
13090;SDS011;6611;52.604;13.438;2022-07-12T15:11:57;0.90;;;0.82;;
13090;SDS011;6611;52.604;13.438;2022-07-12T15:14:29;0.70;;;0.60;;
13090;SDS011;6611;52.604;13.438;2022-07-12T15:17:02;1.20;;;0.60;;
13090;SDS011;6611;52.604;13.438;2022-07-12T15:19:34;1.65;;;0.80;;
13090;SDS011;6611;52.604;13.438;2022-07-12T15:22:07;1.00;;;0.70;;
13090;SDS011;6611;52.604;13.438;2022-07-12T15:24:40;0.93;;;0.60;;
13090;SDS011;6611;52.604;13.438;2022-07-12T15:27:13;2.63;;;0.88;;